Time;durP1;ratioP1;P1;durP2;ratioP2;P2;SDS_P1;SDS_P2;PMS_P1;PMS_P2;Temp;Humidity;BMP_temperature;BMP_pressure;BME280_temperature;BME280_humidity;BME280_pressure;Samples;Min_cycle;Max_cycle;Signal;HPM_P1;HPM_P2
2023/08/07 00:02:47;;;;;;;27.83;5.20;;;;;;;25.83;70.46;99214.69;10308597;28;20145;-68
2023/08/07 00:07:47;;;;;;;23.77;5.28;;;;;;;26.30;70.31;99290.97;10297054;28;20046;-68
2023/08/07 00:12:48;;;;;;;40.08;5.70;;;;;;;26.13;70.57;99265.09;10296839;28;20414;-68
2023/08/07 00:17:49;;;;;;;32.05;6.40;;;;;;;26.17;70.95;99277.00;10297441;28;20066;-68
2023/08/07 00:22:50;;;;;;;19.75;5.28;;;;;;;25.59;71.36;99192.19;10296801;28;20069;-68
2023/08/07 00:27:50;;;;;;;41.35;6.07;;;;;;;25.94;71.02;99254.25;10295931;28;20043;-68
2023/08/07 00:32:51;;;;;;;26.85;5.50;;;;;;;25.56;71.50;99211.81;10295604;28;20038;-68
2023/08/07 00:37:52;;;;;;;33.30;6.15;;;;;;;25.53;72.14;99205.06;10295266;28;20039;-68
2023/08/07 00:42:53;;;;;;;20.98;5.15;;;;;;;25.88;72.29;99285.34;10296533;28;20379;-68
2023/08/07 00:47:53;;;;;;;31.75;5.85;;;;;;;25.37;72.69;99222.66;10296146;28;20050;-68
2023/08/07 00:52:55;;;;;;;28.48;6.00;;;;;;;25.69;72.91;99289.94;10295249;28;20069;-68
2023/08/07 00:57:58;;;;;;;31.67;6.30;;;;;;;25.42;72.79;99261.47;10295956;28;20410;-68
2023/08/07 01:02:59;;;;;;;22.35;5.03;;;;;;;25.47;72.95;99277.72;10295411;28;20502;-69
2023/08/07 01:08:00;;;;;;;16.67;5.00;;;;;;;25.01;73.37;99217.69;10296014;28;20137;-68
2023/08/07 01:13:16;;;;;;;23.95;5.53;;;;;;;25.39;74.36;99274.84;10295098;28;20090;-68
2023/08/07 01:18:17;;;;;;;44.65;7.03;;;;;;;25.44;73.27;99289.19;10295434;28;20043;-68
2023/08/07 01:23:18;;;;;;;41.08;6.65;;;;;;;25.51;72.86;99283.38;10293800;28;20090;-68
2023/08/07 01:28:36;;;;;;;22.50;5.65;;;;;;;25.47;74.22;99288.59;10294640;28;20093;-68
2023/08/07 01:34:04;;;;;;;33.22;5.93;;;;;;;25.49;73.52;99291.84;10293309;28;20499;-69
2023/08/07 01:39:09;;;;;;;35.75;6.47;;;;;;;25.43;72.68;99298.44;10292966;28;20519;-68
2023/08/07 01:44:09;;;;;;;29.65;6.88;;;;;;;25.38;72.10;99295.78;10294508;28;20042;-68
2023/08/07 01:49:10;;;;;;;33.50;6.55;;;;;;;25.34;72.19;99286.63;10294299;28;20402;-68
2023/08/07 01:54:11;;;;;;;33.83;6.22;;;;;;;25.38;71.94;99297.72;10293253;28;20089;-68
2023/08/07 01:59:12;;;;;;;19.85;5.28;;;;;;;25.37;71.96;99299.63;10293910;28;20042;-68
2023/08/07 02:04:12;;;;;;;30.27;6.18;;;;;;;25.47;72.36;99315.78;10292254;28;20515;-69
2023/08/07 02:09:13;;;;;;;36.90;7.82;;;;;;;25.33;73.14;99309.44;10321853;28;20141;-68
2023/08/07 02:14:14;;;;;;;47.90;6.50;;;;;;;25.37;73.42;99315.94;10333101;28;20045;-68
2023/08/07 02:19:14;;;;;;;32.05;7.25;;;;;;;25.03;72.76;99257.03;10332844;28;20072;-68
2023/08/07 02:24:15;;;;;;;27.15;6.28;;;;;;;25.39;73.19;99313.72;10332205;28;20044;-68
2023/08/07 02:29:16;;;;;;;36.28;5.85;;;;;;;25.42;73.92;99340.31;10333282;28;20044;-69
2023/08/07 02:34:17;;;;;;;34.17;6.60;;;;;;;25.47;74.33;99331.31;10331828;28;20502;-68
2023/08/07 02:39:17;;;;;;;32.20;6.57;;;;;;;25.49;74.12;99320.97;10332804;28;20046;-68
2023/08/07 02:44:19;;;;;;;30.77;6.95;;;;;;;25.55;73.82;99308.06;10332056;28;20538;-68
2023/08/07 02:49:20;;;;;;;28.60;5.85;;;;;;;25.70;73.22;99330.47;10331469;28;20089;-68
2023/08/07 02:54:21;;;;;;;29.45;6.60;;;;;;;25.91;72.53;99319.31;10332150;28;20070;-68
2023/08/07 02:59:22;;;;;;;26.15;5.75;;;;;;;25.90;71.06;99264.06;10331722;28;20494;-68
2023/08/07 03:04:23;;;;;;;129.90;11.98;;;;;;;26.38;70.73;99271.19;10331124;28;20486;-68
2023/08/07 03:09:23;;;;;;;61.55;27.83;;;;;;;27.13;68.54;99310.19;10331516;28;20053;-68
2023/08/07 03:14:24;;;;;;;48.40;17.85;;;;;;;27.74;66.59;99312.47;10330355;28;20046;-68
2023/08/07 03:19:25;;;;;;;32.70;9.52;;;;;;;28.59;64.20;99322.78;10331302;28;20042;-68
2023/08/07 03:24:25;;;;;;;22.10;7.85;;;;;;;28.91;62.38;99313.47;10331464;28;20133;-68
2023/08/07 03:29:27;;;;;;;22.75;6.60;;;;;;;29.60;60.75;99323.06;10331286;28;20045;-68
2023/08/07 03:34:27;;;;;;;35.42;7.45;;;;;;;29.70;58.80;99205.06;10331013;28;20076;-66
2023/08/07 03:39:28;;;;;;;24.70;6.18;;;;;;;30.59;57.72;99332.25;10331057;28;20044;-67
2023/08/07 03:44:29;;;;;;;43.15;7.30;;;;;;;30.99;56.51;99329.25;10331004;28;20052;-67
2023/08/07 03:49:29;;;;;;;42.33;6.60;;;;;;;31.58;55.13;99307.34;10319642;28;20053;-70
2023/08/07 03:54:30;;;;;;;23.27;5.85;;;;;;;31.83;53.76;99302.81;10330623;28;20117;-70
2023/08/07 03:59:31;;;;;;;23.20;5.95;;;;;;;32.06;53.53;99297.78;10330269;28;20494;-70
2023/08/07 04:04:32;;;;;;;21.27;6.05;;;;;;;32.55;51.89;99304.63;10329985;28;20487;-70
2023/08/07 04:09:32;;;;;;;36.45;7.20;;;;;;;32.92;51.26;99302.75;10329822;28;20042;-70
2023/08/07 04:14:33;;;;;;;21.70;5.72;;;;;;;32.96;50.29;99312.69;10336653;28;20058;-70
2023/08/07 04:19:34;;;;;;;20.27;5.30;;;;;;;33.02;49.51;99268.50;10337136;28;20065;-69
2023/08/07 04:24:34;;;;;;;19.30;4.30;;;;;;;33.36;48.77;99301.06;10333415;28;20502;-69
2023/08/07 04:29:35;;;;;;;22.73;5.05;;;;;;;33.57;48.65;99289.91;10336790;28;20065;-69
2023/08/07 04:34:36;;;;;;;21.98;5.00;;;;;;;33.55;48.48;99272.94;10337028;28;20050;-70
2023/08/07 04:39:37;;;;;;;31.10;5.30;;;;;;;33.29;49.14;99225.69;10336987;28;20049;-69
2023/08/07 04:44:37;;;;;;;26.58;4.72;;;;;;;33.82;48.85;99284.34;10336261;28;20517;-69
2023/08/07 04:49:38;;;;;;;23.75;5.03;;;;;;;33.67;48.86;99283.13;10335444;28;20181;-70
2023/08/07 04:54:39;;;;;;;17.15;4.55;;;;;;;33.80;48.41;99275.63;10309399;28;20066;-70
2023/08/07 04:59:40;;;;;;;19.95;4.70;;;;;;;33.83;48.34;99274.91;10295538;28;20070;-69
2023/08/07 05:04:40;;;;;;;17.85;4.75;;;;;;;33.56;48.86;99269.03;10295553;28;20047;-69
2023/08/07 05:09:41;;;;;;;23.85;5.15;;;;;;;33.24;49.03;99246.03;10294222;28;20066;-69
2023/08/07 05:14:42;;;;;;;26.00;4.63;;;;;;;33.06;50.15;99269.44;10294661;28;20499;-69
2023/08/07 05:19:42;;;;;;;28.08;5.53;;;;;;;32.60;50.79;99236.47;10295172;28;20042;-69
2023/08/07 05:24:44;;;;;;;21.00;4.72;;;;;;;32.46;50.57;99252.50;10294182;28;20074;-70
2023/08/07 05:29:45;;;;;;;28.10;5.70;;;;;;;32.28;51.48;99260.09;10294648;28;20496;-69
2023/08/07 05:34:46;;;;;;;33.97;5.53;;;;;;;31.95;51.76;99246.34;10294416;28;20282;-69
2023/08/07 05:39:46;;;;;;;25.20;4.97;;;;;;;32.29;51.85;99270.75;10294844;28;20125;-70
2023/08/07 05:44:47;;;;;;;30.65;5.43;;;;;;;32.39;50.36;99260.47;10293858;28;20047;-69
2023/08/07 05:49:48;;;;;;;45.53;6.68;;;;;;;32.49;50.88;99216.09;10293629;28;20039;-69
2023/08/07 05:54:49;;;;;;;39.90;6.22;;;;;;;32.87;49.79;99245.19;10293241;28;20051;-69
2023/08/07 05:59:49;;;;;;;45.50;6.68;;;;;;;33.04;50.07;99269.75;10293567;28;20065;-69
2023/08/07 06:04:50;;;;;;;35.15;6.28;;;;;;;32.95;49.87;99258.03;10292912;28;20097;-70
2023/08/07 06:09:51;;;;;;;40.30;6.40;;;;;;;33.15;49.33;99262.66;10293126;28;20042;-69
2023/08/07 06:14:51;;;;;;;29.77;6.80;;;;;;;33.50;49.32;99256.63;10292300;28;20039;-69
2023/08/07 06:19:52;;;;;;;44.67;6.57;;;;;;;33.64;48.59;99259.81;10293342;28;20042;-70
2023/08/07 06:24:53;;;;;;;46.28;7.30;;;;;;;33.83;48.16;99248.19;10293645;28;20046;-70
2023/08/07 06:29:54;;;;;;;38.58;6.60;;;;;;;33.82;47.82;99230.03;10291823;28;20496;-69
2023/08/07 06:34:55;;;;;;;42.47;7.20;;;;;;;34.03;46.68;99237.34;10292126;28;20050;-69
2023/08/07 06:39:55;;;;;;;38.47;6.80;;;;;;;34.29;46.78;99240.41;10292137;28;20039;-70
2023/08/07 06:44:56;;;;;;;36.38;6.43;;;;;;;34.41;46.42;99239.53;10291565;28;20053;-69
2023/08/07 06:49:57;;;;;;;41.47;6.60;;;;;;;34.51;45.51;99261.06;10291125;28;20046;-69
2023/08/07 06:54:57;;;;;;;32.15;6.13;;;;;;;34.57;45.07;99269.09;10291842;28;20128;-70
2023/08/07 06:59:58;;;;;;;41.30;6.47;;;;;;;34.72;45.55;99254.50;10291090;28;20065;-69
2023/08/07 07:05:00;;;;;;;47.78;6.72;;;;;;;34.90;45.65;99261.25;10291786;28;20046;-71
2023/08/07 07:10:00;;;;;;;33.58;5.88;;;;;;;34.91;43.99;99240.81;10290924;28;20070;-71
2023/08/07 07:15:01;;;;;;;37.75;6.28;;;;;;;35.19;43.85;99245.41;10292436;28;20039;-70
2023/08/07 07:20:02;;;;;;;34.70;5.88;;;;;;;35.19;43.21;99248.16;10291638;28;20446;-70
2023/08/07 07:25:04;;;;;;;31.92;6.13;;;;;;;35.55;43.91;99249.78;10291001;28;20039;-71
2023/08/07 07:30:06;;;;;;;35.95;6.63;;;;;;;35.70;42.82;99239.84;10301667;28;20418;-70
2023/08/07 07:35:07;;;;;;;29.43;5.97;;;;;;;35.90;42.64;99237.88;10289248;28;20129;-72
2023/08/07 07:40:08;;;;;;;36.87;6.30;;;;;;;35.99;43.34;99237.63;10283378;28;20396;-71
2023/08/07 07:45:09;;;;;;;42.65;5.95;;;;;;;36.01;42.07;99225.03;10291564;28;20042;-72
2023/08/07 07:50:10;;;;;;;40.78;6.70;;;;;;;36.31;41.71;99241.81;10302160;28;20401;-71
2023/08/07 07:55:13;;;;;;;30.37;5.87;;;;;;;36.60;41.60;99250.66;10297287;28;20415;-71
2023/08/07 08:00:14;;;;;;;41.42;5.78;;;;;;;36.94;41.72;99272.94;10293712;28;20415;-71
2023/08/07 08:05:15;;;;;;;51.80;7.00;;;;;;;37.11;41.22;99277.97;10296392;28;20046;-70
2023/08/07 08:10:16;;;;;;;45.97;6.47;;;;;;;37.29;41.17;99274.69;10296527;28;20046;-70
2023/08/07 08:15:17;;;;;;;35.40;6.13;;;;;;;37.07;40.81;99252.22;10296896;28;20475;-70
2023/08/07 08:20:19;;;;;;;33.93;5.60;;;;;;;37.22;40.57;99254.03;10295894;28;20054;-70
2023/08/07 08:25:19;;;;;;;;;;;;;;;37.52;38.74;99269.09;10295831;28;20085;-73
2023/08/07 08:30:20;;;;;;;38.13;5.10;;;;;;;37.08;40.56;99242.72;10294624;28;20403;-71
2023/08/07 08:35:21;;;;;;;48.15;6.03;;;;;;;37.26;40.40;99256.03;10296871;28;20410;-72
2023/08/07 08:40:24;;;;;;;33.07;5.33;;;;;;;37.40;39.76;99270.09;10294676;28;20031;-70
2023/08/07 08:45:26;;;;;;;46.03;5.60;;;;;;;37.46;39.35;99257.50;10294744;28;20060;-70
2023/08/07 08:50:28;;;;;;;40.97;5.78;;;;;;;37.60;39.41;99252.16;10295898;28;20042;-69
2023/08/07 08:55:29;;;;;;;26.80;5.60;;;;;;;37.49;39.42;99248.47;10296278;28;20051;-70
2023/08/07 09:00:30;;;;;;;28.67;5.28;;;;;;;37.61;38.86;99275.16;10293931;28;20097;-71
2023/08/07 09:05:31;;;;;;;39.75;5.90;;;;;;;37.72;38.85;99269.72;10298507;28;20047;-70
2023/08/07 09:10:33;;;;;;;28.70;5.30;;;;;;;37.77;38.60;99250.81;10294145;28;20042;-71
2023/08/07 09:15:36;;;;;;;38.28;5.68;;;;;;;37.46;38.52;99200.16;10293237;28;20038;-70
2023/08/07 09:20:41;;;;;;;38.78;6.05;;;;;;;37.72;38.88;99231.72;10297216;28;20495;-71
2023/08/07 09:25:42;;;;;;;31.75;5.93;;;;;;;38.00;38.74;99247.94;10333659;28;20053;-70
2023/08/07 09:30:44;;;;;;;39.10;5.57;;;;;;;38.10;37.70;99254.75;10334218;28;20046;-70
2023/08/07 09:35:45;;;;;;;44.00;5.88;;;;;;;38.23;37.79;99244.19;10334467;28;20046;-69
2023/08/07 09:40:46;;;;;;;43.73;6.03;;;;;;;38.44;37.66;99263.84;10302508;28;20069;-70
2023/08/07 09:45:46;;;;;;;24.97;5.73;;;;;;;38.19;37.79;99199.78;10292316;28;20042;-69
2023/08/07 09:50:47;;;;;;;31.20;5.60;;;;;;;38.26;37.65;99218.47;10293274;28;20074;-70
2023/08/07 09:55:48;;;;;;;35.17;5.60;;;;;;;38.45;37.06;99221.06;10293057;28;20431;-69
2023/08/07 10:00:49;;;;;;;37.20;5.73;;;;;;;38.57;36.51;99247.72;10293542;28;20046;-71
2023/08/07 10:05:50;;;;;;;39.38;5.32;;;;;;;38.31;37.19;99229.22;10294420;28;20053;-69
2023/08/07 10:10:51;;;;;;;23.05;5.40;;;;;;;38.58;36.77;99246.53;10293700;28;20547;-70
2023/08/07 10:15:52;;;;;;;29.07;5.97;;;;;;;38.68;36.42;99256.94;10292972;28;20141;-69
2023/08/07 10:20:54;;;;;;;49.75;6.22;;;;;;;38.68;36.36;99254.16;10292233;28;20043;-71
2023/08/07 10:25:57;;;;;;;35.15;5.43;;;;;;;38.22;37.10;99210.13;10293358;28;20054;-70
2023/08/07 10:30:58;;;;;;;28.67;5.70;;;;;;;38.39;36.09;99205.13;10291844;28;20049;-69
2023/08/07 10:35:59;;;;;;;21.63;4.85;;;;;;;38.96;36.34;99253.59;10292164;28;20443;-69
2023/08/07 10:41:13;;;;;;;41.80;5.47;;;;;;;39.06;36.58;99251.28;10291672;28;20043;-69
2023/08/07 10:46:23;;;;;;;25.20;5.68;;;;;;;38.64;34.82;99178.41;10292121;28;20049;-70
2023/08/07 10:51:32;;;;;;;26.42;5.03;;;;;;;39.01;34.07;99241.31;10291488;28;20043;-69
2023/08/07 10:56:40;;;;;;;41.43;6.80;;;;;;;39.13;35.56;99234.66;10292124;28;20100;-69
2023/08/07 11:01:42;;;;;;;27.08;5.47;;;;;;;38.79;34.84;99182.06;10294159;28;20146;-69
2023/08/07 11:06:46;;;;;;;27.80;5.75;;;;;;;39.18;34.73;99240.66;10329494;28;20046;-70
2023/08/07 11:11:48;;;;;;;27.25;5.40;;;;;;;39.35;34.31;99247.53;10310382;28;20078;-70
2023/08/07 11:16:49;;;;;;;28.52;5.07;;;;;;;38.88;34.35;99188.09;10290848;28;20442;-69
2023/08/07 11:21:50;;;;;;;30.57;5.57;;;;;;;38.94;34.15;99188.53;10297512;28;20079;-70
2023/08/07 11:26:52;;;;;;;29.38;6.25;;;;;;;39.48;33.21;99251.56;10315729;28;20078;-69
2023/08/07 11:31:53;;;;;;;30.00;5.80;;;;;;;38.85;33.92;99177.78;10328435;28;20046;-70
2023/08/07 11:36:57;;;;;;;35.17;5.35;;;;;;;39.60;33.96;99246.84;10339792;28;20541;-69
2023/08/07 11:41:59;;;;;;;23.17;4.97;;;;;;;39.60;32.80;99260.75;10324878;28;20042;-69
2023/08/07 11:47:00;;;;;;;31.83;5.70;;;;;;;39.44;33.87;99203.50;10297291;28;20047;-70
2023/08/07 11:52:02;;;;;;;25.97;5.53;;;;;;;39.47;33.95;99211.06;10298475;28;20093;-70
2023/08/07 11:57:03;;;;;;;25.50;5.32;;;;;;;39.59;33.93;99245.25;10298500;28;20301;-69
2023/08/07 12:02:11;;;;;;;20.60;4.72;;;;;;;39.67;33.50;99258.00;10298115;28;20134;-70
2023/08/07 12:07:19;;;;;;;27.77;5.40;;;;;;;39.65;34.76;99255.59;10306614;28;20494;-69
2023/08/07 12:12:20;;;;;;;25.77;5.18;;;;;;;39.03;32.46;99187.00;10295927;28;20039;-70
2023/08/07 12:17:21;;;;;;;23.48;5.32;;;;;;;39.11;32.97;99192.63;10296471;28;20603;-72
2023/08/07 12:22:22;;;;;;;25.08;5.55;;;;;;;39.43;32.76;99254.72;10298112;28;20134;-69
2023/08/07 12:27:23;;;;;;;23.60;5.43;;;;;;;39.38;33.02;99252.31;10295236;28;20050;-72
2023/08/07 12:32:24;;;;;;;30.73;4.67;;;;;;;39.18;33.51;99212.09;10295342;28;20035;-71
2023/08/07 12:37:25;;;;;;;27.53;5.33;;;;;;;39.36;32.44;99232.44;10316000;28;20174;-71
2023/08/07 12:42:25;;;;;;;28.33;4.95;;;;;;;39.19;31.52;99178.38;10301456;28;20045;-69
2023/08/07 12:47:26;;;;;;;32.70;6.00;;;;;;;39.64;32.36;99248.47;10319087;28;20525;-69
2023/08/07 12:52:27;;;;;;;21.67;4.87;;;;;;;39.61;31.82;99242.88;10330791;28;20039;-69
2023/08/07 12:57:28;;;;;;;21.80;4.73;;;;;;;39.03;33.07;99178.66;10317513;28;20066;-71
2023/08/07 13:02:28;;;;;;;22.80;5.20;;;;;;;39.45;33.27;99249.56;10317284;28;20047;-70
2023/08/07 13:07:29;;;;;;;26.87;5.17;;;;;;;39.26;32.61;99213.72;10294602;28;20466;-72
2023/08/07 13:12:33;;;;;;;47.43;5.87;;;;;;;39.22;33.39;99226.78;10324304;28;20041;-70
2023/08/07 13:17:35;;;;;;;22.63;4.95;;;;;;;39.18;32.24;99246.19;10317103;28;20043;-70
2023/08/07 13:22:38;;;;;;;43.22;6.70;;;;;;;39.41;32.89;99245.97;10318616;28;20046;-71
2023/08/07 13:27:39;;;;;;;35.20;5.93;;;;;;;39.34;33.00;99220.94;10328388;28;20046;-70
2023/08/07 13:32:40;;;;;;;25.60;5.63;;;;;;;39.60;32.39;99250.41;10333243;28;20502;-71
2023/08/07 13:37:40;;;;;;;33.57;6.03;;;;;;;39.55;33.19;99255.56;10324800;28;20097;-71
2023/08/07 13:42:41;;;;;;;35.13;5.83;;;;;;;39.27;33.47;99240.31;10332586;28;20070;-71
2023/08/07 13:47:42;;;;;;;26.33;5.07;;;;;;;38.95;34.13;99202.03;10307752;28;20043;-71
2023/08/07 13:52:43;;;;;;;20.60;4.82;;;;;;;39.12;34.22;99244.19;10307349;28;20124;-71
2023/08/07 13:57:44;;;;;;;27.03;6.20;;;;;;;39.01;33.50;99246.88;10302797;28;20074;-71
2023/08/07 14:02:45;;;;;;;19.77;5.07;;;;;;;38.36;33.88;99160.31;10313004;28;20058;-70
2023/08/07 14:07:45;;;;;;;23.27;5.10;;;;;;;38.81;33.64;99251.88;10319411;28;20050;-69
2023/08/07 14:12:46;;;;;;;17.97;4.90;;;;;;;38.56;33.65;99202.53;10326714;28;20289;-69
2023/08/07 14:17:47;;;;;;;25.17;5.07;;;;;;;38.82;33.93;99253.47;10324354;28;20045;-68
2023/08/07 14:22:48;;;;;;;35.63;5.57;;;;;;;38.64;34.25;99261.66;10333456;28;20069;-69
2023/08/07 14:27:49;;;;;;;30.37;5.93;;;;;;;38.55;34.00;99264.75;10331866;28;20399;-69
2023/08/07 14:32:50;;;;;;;38.57;6.07;;;;;;;38.37;34.34;99236.81;10331451;28;20066;-69
2023/08/07 14:37:50;;;;;;;59.00;7.83;;;;;;;38.41;34.70;99261.84;10333087;28;20313;-69
2023/08/07 14:42:51;;;;;;;27.27;5.33;;;;;;;38.43;34.29;99261.47;10332560;28;20040;-69
2023/08/07 14:47:52;;;;;;;111.65;10.13;;;;;;;37.72;35.38;99183.81;10332310;28;20042;-69
2023/08/07 14:52:53;;;;;;;67.00;8.13;;;;;;;37.53;36.04;99199.44;10331660;28;20050;-69
2023/08/07 14:57:54;;;;;;;35.30;6.03;;;;;;;37.91;35.82;99264.03;10330427;28;20053;-69
2023/08/07 15:02:57;;;;;;;49.40;6.77;;;;;;;37.91;36.60;99277.91;10331872;28;20043;-69
2023/08/07 15:08:00;;;;;;;42.22;6.15;;;;;;;37.86;36.30;99276.25;10330552;28;20125;-69
2023/08/07 15:13:01;;;;;;;32.03;6.65;;;;;;;37.52;37.42;99249.72;10331773;28;20402;-69
2023/08/07 15:18:04;;;;;;;41.30;6.10;;;;;;;37.21;36.36;99219.19;10332028;28;20041;-69
2023/08/07 15:23:05;;;;;;;87.43;9.82;;;;;;;37.26;38.83;99292.03;10331255;28;20066;-69
2023/08/07 15:28:06;;;;;;;35.17;7.77;;;;;;;36.82;38.16;99232.41;10331885;28;20096;-69
2023/08/07 15:33:07;;;;;;;66.43;8.10;;;;;;;36.70;38.57;99232.63;10330955;28;20038;-69
2023/08/07 15:38:10;;;;;;;81.87;8.93;;;;;;;36.42;38.55;99221.84;10331684;28;20128;-69
2023/08/07 15:43:11;;;;;;;32.30;5.20;;;;;;;36.22;39.66;99226.63;10330686;28;20062;-70
2023/08/07 15:48:12;;;;;;;38.30;6.07;;;;;;;36.20;39.43;99265.72;10331065;28;20078;-69
2023/08/07 15:53:13;;;;;;;54.57;6.60;;;;;;;35.92;40.14;99259.59;10330820;28;20137;-69
2023/08/07 15:58:14;;;;;;;32.42;6.28;;;;;;;35.95;39.85;99292.81;10330205;28;20578;-69
2023/08/07 16:03:14;;;;;;;83.45;8.88;;;;;;;35.64;40.13;99277.19;10330539;28;20053;-69
2023/08/07 16:08:15;;;;;;;33.92;5.57;;;;;;;35.55;40.35;99290.41;10336831;28;20065;-69
2023/08/07 16:13:16;;;;;;;32.30;5.43;;;;;;;34.98;40.37;99229.94;10337831;28;20045;-69
2023/08/07 16:18:17;;;;;;;32.97;6.07;;;;;;;35.27;40.63;99302.41;10323252;28;20046;-69
2023/08/07 16:23:17;;;;;;;42.30;6.13;;;;;;;35.11;41.06;99318.97;10308184;28;20057;-69
2023/08/07 16:28:19;;;;;;;41.22;6.25;;;;;;;34.95;41.45;99324.47;10337307;28;20226;-69
2023/08/07 16:33:20;;;;;;;34.70;6.27;;;;;;;34.68;42.02;99314.31;10337645;28;20040;-69
2023/08/07 16:38:20;;;;;;;46.63;6.22;;;;;;;34.37;42.19;99293.75;10335993;28;20042;-69
2023/08/07 16:43:21;;;;;;;60.55;7.75;;;;;;;34.39;42.91;99335.56;10306879;28;20044;-69
2023/08/07 16:48:22;;;;;;;88.32;8.10;;;;;;;33.93;44.18;99296.47;10295163;28;20038;-68
2023/08/07 16:53:23;;;;;;;78.35;8.57;;;;;;;33.93;45.02;99335.03;10295666;28;20109;-69
2023/08/07 16:58:23;;;;;;;45.38;6.40;;;;;;;33.48;44.86;99291.97;10298571;28;20479;-69
2023/08/07 17:03:24;;;;;;;53.72;7.28;;;;;;;33.60;44.58;99333.28;10304153;28;20137;-69
2023/08/07 17:08:25;;;;;;;48.67;6.30;;;;;;;33.66;44.17;99352.34;10294635;28;20055;-68
2023/08/07 17:13:26;;;;;;;27.05;4.90;;;;;;;33.48;44.34;99340.72;10293474;28;20040;-69
2023/08/07 17:18:26;;;;;;;32.35;5.38;;;;;;;33.35;44.56;99348.19;10293065;28;20043;-69
2023/08/07 17:23:27;;;;;;;25.25;5.70;;;;;;;33.02;44.62;99307.00;10295719;28;20115;-70
2023/08/07 17:28:31;;;;;;;23.50;4.88;;;;;;;33.29;44.77;99368.81;10288553;28;20094;-69
2023/08/07 17:33:35;;;;;;;38.00;6.03;;;;;;;33.26;44.79;99377.78;10292189;28;20045;-70
2023/08/07 17:38:36;;;;;;;31.30;5.65;;;;;;;33.21;44.93;99372.47;10293994;28;20376;-69
2023/08/07 17:43:36;;;;;;;20.42;4.70;;;;;;;33.06;45.31;99368.47;10280357;28;20051;-69
2023/08/07 17:48:37;;;;;;;28.85;4.97;;;;;;;33.08;45.24;99377.97;10310239;28;20046;-69
2023/08/07 17:53:39;;;;;;;41.63;6.15;;;;;;;32.94;45.74;99383.78;10321434;28;20490;-69
2023/08/07 17:58:40;;;;;;;34.60;5.93;;;;;;;32.97;45.59;99387.81;10298879;28;20047;-70
2023/08/07 18:03:41;;;;;;;47.03;6.40;;;;;;;32.49;45.95;99326.03;10292407;28;20487;-69
2023/08/07 18:08:41;;;;;;;28.40;5.20;;;;;;;32.79;46.34;99403.69;10293210;28;20157;-69
2023/08/07 18:13:42;;;;;;;23.23;5.28;;;;;;;32.26;46.73;99331.88;10290104;28;20038;-70
2023/08/07 18:18:43;;;;;;;26.85;4.93;;;;;;;32.52;47.04;99394.09;10291344;28;20514;-69
2023/08/07 18:23:44;;;;;;;30.08;5.20;;;;;;;32.15;46.87;99349.91;10303042;28;20042;-69
2023/08/07 18:28:44;;;;;;;39.65;5.90;;;;;;;32.41;47.43;99403.88;10331197;28;20074;-69
2023/08/07 18:33:45;;;;;;;25.67;4.75;;;;;;;32.29;47.54;99412.84;10332522;28;20038;-69
2023/08/07 18:38:46;;;;;;;34.47;5.63;;;;;;;32.17;48.04;99413.59;10332664;28;20045;-69
2023/08/07 18:43:47;;;;;;;24.10;4.80;;;;;;;31.88;47.94;99386.94;10332302;28;20045;-69
2023/08/07 18:48:48;;;;;;;24.98;5.18;;;;;;;31.63;48.44;99363.22;10330834;28;20092;-69
2023/08/07 18:53:49;;;;;;;27.88;5.13;;;;;;;31.95;48.18;99428.47;10330536;28;20109;-69
2023/08/07 18:58:50;;;;;;;24.45;5.07;;;;;;;31.51;48.09;99367.47;10325559;28;20034;-69
2023/08/07 19:03:51;;;;;;;29.90;4.80;;;;;;;31.83;47.84;99431.09;10319039;28;20046;-69
2023/08/07 19:08:52;;;;;;;28.52;5.38;;;;;;;31.76;47.74;99430.78;10331054;28;20069;-69
2023/08/07 19:13:53;;;;;;;34.08;5.47;;;;;;;31.65;48.66;99424.06;10292448;28;20129;-69
2023/08/07 19:18:54;;;;;;;19.52;4.07;;;;;;;31.58;48.36;99432.81;10290827;28;20586;-69
2023/08/07 19:23:55;;;;;;;29.05;5.00;;;;;;;31.47;48.54;99432.41;10290900;28;20054;-69
2023/08/07 19:28:56;;;;;;;30.63;4.30;;;;;;;30.93;49.00;99361.56;10291222;28;20051;-69
2023/08/07 19:33:57;;;;;;;25.17;5.25;;;;;;;31.18;49.33;99419.41;10291630;28;20042;-68
2023/08/07 19:38:58;;;;;;;34.40;4.65;;;;;;;31.12;49.92;99435.22;10289601;28;20134;-68
2023/08/07 19:43:58;;;;;;;24.63;4.47;;;;;;;31.03;50.15;99428.97;10298927;28;20039;-69
2023/08/07 19:48:59;;;;;;;26.40;4.95;;;;;;;30.57;50.40;99380.31;10325987;28;20061;-68
2023/08/07 19:54:00;;;;;;;21.50;4.65;;;;;;;30.60;51.45;99404.31;10305633;28;20418;-68
2023/08/07 19:59:04;;;;;;;28.35;4.72;;;;;;;30.73;51.21;99444.47;10338044;28;20034;-68
2023/08/07 20:04:05;;;;;;;22.83;4.85;;;;;;;30.51;51.88;99436.41;10302170;28;20049;-68
2023/08/07 20:09:06;;;;;;;25.95;4.63;;;;;;;30.19;52.07;99394.66;10297830;28;20389;-68
2023/08/07 20:14:06;;;;;;;33.72;4.88;;;;;;;29.95;52.87;99390.44;10303660;28;20048;-68
2023/08/07 20:19:07;;;;;;;22.45;4.25;;;;;;;30.24;54.19;99476.69;10337226;28;20042;-68
2023/08/07 20:24:08;;;;;;;24.13;5.20;;;;;;;29.85;55.52;99428.25;10337721;28;20509;-68
2023/08/07 20:29:09;;;;;;;31.23;4.97;;;;;;;29.91;55.63;99470.78;10336629;28;20092;-69
2023/08/07 20:34:10;;;;;;;34.65;4.90;;;;;;;29.79;57.46;99485.09;10337331;28;20066;-68
2023/08/07 20:39:13;;;;;;;20.55;4.80;;;;;;;29.60;57.50;99488.06;10337112;28;20391;-68
2023/08/07 20:44:13;;;;;;;30.95;6.15;;;;;;;29.43;58.14;99501.66;10335632;28;20049;-68
2023/08/07 20:49:14;;;;;;;30.40;5.03;;;;;;;29.24;58.65;99490.94;10336866;28;20053;-68
2023/08/07 20:54:15;;;;;;;33.67;5.55;;;;;;;29.29;59.19;99516.22;10335795;28;20085;-68
2023/08/07 20:59:16;;;;;;;27.15;5.50;;;;;;;29.00;59.57;99502.16;10335147;28;20069;-68
2023/08/07 21:04:16;;;;;;;28.92;5.10;;;;;;;29.19;60.17;99532.88;10336033;28;20046;-68
2023/08/07 21:09:17;;;;;;;27.30;5.10;;;;;;;29.11;61.26;99542.66;10335870;28;20136;-68
2023/08/07 21:14:18;;;;;;;21.00;4.68;;;;;;;29.01;61.55;99542.84;10335656;28;20077;-68
2023/08/07 21:19:19;;;;;;;29.83;6.25;;;;;;;28.93;62.20;99542.78;10333685;28;20461;-68
2023/08/07 21:24:20;;;;;;;24.90;5.57;;;;;;;28.77;63.00;99532.22;10335454;28;20043;-68
2023/08/07 21:29:20;;;;;;;23.48;5.10;;;;;;;28.10;63.85;99459.09;10334481;28;20054;-68
2023/08/07 21:34:21;;;;;;;29.65;5.70;;;;;;;28.62;63.83;99549.75;10335222;28;20042;-68
2023/08/07 21:39:22;;;;;;;30.20;5.30;;;;;;;28.55;64.05;99546.66;10334675;28;20038;-68
2023/08/07 21:44:23;;;;;;;28.77;5.53;;;;;;;28.46;63.11;99528.56;10334529;28;20046;-68
2023/08/07 21:49:23;;;;;;;27.65;5.35;;;;;;;28.22;62.26;99492.16;10334290;28;20564;-68
2023/08/07 21:54:24;;;;;;;25.08;5.82;;;;;;;28.48;61.20;99486.19;10334209;28;20473;-68
2023/08/07 21:59:25;;;;;;;28.02;5.30;;;;;;;28.70;61.41;99525.56;10334187;28;20058;-68
2023/08/07 22:04:26;;;;;;;28.35;5.65;;;;;;;28.60;62.50;99534.81;10333334;28;20408;-68
2023/08/07 22:09:26;;;;;;;25.88;4.78;;;;;;;28.47;62.52;99528.25;10332831;28;20057;-68
2023/08/07 22:14:27;;;;;;;37.30;5.68;;;;;;;28.46;63.30;99525.84;10332794;28;20034;-68
2023/08/07 22:19:28;;;;;;;30.23;5.10;;;;;;;28.23;63.30;99523.00;10333525;28;20057;-68
2023/08/07 22:24:28;;;;;;;24.10;5.43;;;;;;;28.17;63.88;99549.59;10333094;28;20035;-68
2023/08/07 22:29:29;;;;;;;22.50;5.70;;;;;;;28.01;65.45;99542.84;10332880;28;20081;-68
2023/08/07 22:34:31;;;;;;;23.38;5.03;;;;;;;27.49;65.45;99482.97;10332731;28;20090;-68
2023/08/07 22:39:34;;;;;;;20.50;5.03;;;;;;;27.80;65.73;99550.63;10332677;28;20481;-68
2023/08/07 22:44:34;;;;;;;27.23;5.47;;;;;;;27.69;66.69;99544.50;10331754;28;20054;-68
2023/08/07 22:49:35;;;;;;;22.63;5.22;;;;;;;27.80;67.44;99553.34;10331548;28;20042;-68
2023/08/07 22:54:36;;;;;;;25.38;5.13;;;;;;;27.44;68.69;99507.59;10331508;28;20085;-68
2023/08/07 22:59:37;;;;;;;21.90;5.28;;;;;;;27.28;69.54;99482.50;10332094;28;20038;-68
2023/08/07 23:04:37;;;;;;;29.35;6.00;;;;;;;27.45;70.48;99531.00;10331286;28;20042;-68